KFB22AK ESSA-EFHK
Flight info
| Callsign | KFB22AK |
|---|---|
| Flight time | 0h 46m |
| Altitude | 27000 |
| Route | TOVRI N851 RIKUM DCT RIRIP Y364 LAKUT |
| Aircraft | RJ85/M-SDFGIRWY/LB1 |
Departure
| Time | 2026-05-04 23:38 |
|---|---|
| Airport | Stockholm-Arlanda Airport (ESSA) |
Arrival
| Time | 2026-05-05 00:25 |
|---|---|
| Airport | Helsinki Vantaa Airport (EFHK) |
| Time | Latitude | Longitude | Altitude | Speed | Heading |
|---|---|---|---|---|---|
| 2026-05-04 23:07 | 59.65290 | 17.92964 | 111 ft | 0 kts | 70° |
| 2026-05-04 23:27 | 59.65289 | 17.92957 | 111 ft | 3 kts | 70° |
| 2026-05-04 23:27 | 59.65280 | 17.92907 | 129 ft | 4 kts | 70° |
| 2026-05-04 23:27 | 59.65271 | 17.92857 | 102 ft | 4 kts | 70° |
| 2026-05-04 23:27 | 59.65262 | 17.92806 | 109 ft | 4 kts | 70° |
| 2026-05-04 23:28 | 59.65257 | 17.92783 | 108 ft | 0 kts | 70° |
| 2026-05-04 23:33 | 59.65258 | 17.92784 | 111 ft | 0 kts | 65° |
| 2026-05-04 23:33 | 59.65260 | 17.92787 | 111 ft | 0 kts | 30° |
| 2026-05-04 23:33 | 59.65277 | 17.92792 | 109 ft | 5 kts | 351° |
| 2026-05-04 23:33 | 59.65319 | 17.92747 | 111 ft | 7 kts | 334° |
| 2026-05-04 23:34 | 59.65361 | 17.92704 | 111 ft | 7 kts | 327° |
| 2026-05-04 23:34 | 59.65424 | 17.92633 | 110 ft | 17 kts | 331° |
| 2026-05-04 23:34 | 59.65552 | 17.92515 | 104 ft | 21 kts | 344° |
| 2026-05-04 23:34 | 59.65693 | 17.92447 | 104 ft | 20 kts | 345° |
| 2026-05-04 23:35 | 59.65816 | 17.92439 | 104 ft | 17 kts | 8° |
| 2026-05-04 23:35 | 59.65948 | 17.92486 | 108 ft | 22 kts | 10° |
| 2026-05-04 23:35 | 59.66117 | 17.92549 | 111 ft | 27 kts | 11° |
| 2026-05-04 23:35 | 59.66315 | 17.92622 | 115 ft | 31 kts | 10° |
| 2026-05-04 23:36 | 59.66516 | 17.92617 | 122 ft | 27 kts | 339° |
| 2026-05-04 23:36 | 59.66614 | 17.92426 | 124 ft | 20 kts | 257° |
| 2026-05-04 23:36 | 59.66567 | 17.92351 | 123 ft | 0 kts | 188° |
| 2026-05-04 23:36 | 59.66565 | 17.92350 | 123 ft | 4 kts | 188° |
| 2026-05-04 23:37 | 59.66378 | 17.92283 | 119 ft | 53 kts | 191° |
| 2026-05-04 23:37 | 59.65868 | 17.92099 | 114 ft | 94 kts | 190° |
| 2026-05-04 23:37 | 59.65129 | 17.91803 | 198 ft | 106 kts | 199° |
| 2026-05-04 23:37 | 59.64362 | 17.91437 | 249 ft | 118 kts | 194° |
| 2026-05-04 23:38 | 59.63514 | 17.91054 | 372 ft | 133 kts | 194° |
| 2026-05-04 23:38 | 59.62567 | 17.90763 | 612 ft | 142 kts | 191° |
| 2026-05-04 23:38 | 59.61562 | 17.90617 | 887 ft | 150 kts | 188° |
| 2026-05-04 23:38 | 59.60483 | 17.90571 | 1164 ft | 158 kts | 189° |
| 2026-05-04 23:39 | 59.59407 | 17.90609 | 1609 ft | 152 kts | 193° |
| 2026-05-04 23:39 | 59.58351 | 17.90578 | 1917 ft | 153 kts | 195° |
| 2026-05-04 23:39 | 59.57241 | 17.90482 | 2157 ft | 164 kts | 195° |
| 2026-05-04 23:39 | 59.56062 | 17.90361 | 2519 ft | 173 kts | 193° |
| 2026-05-04 23:40 | 59.54884 | 17.90253 | 3159 ft | 165 kts | 193° |
| 2026-05-04 23:40 | 59.53728 | 17.90391 | 3596 ft | 178 kts | 167° |
| 2026-05-04 23:40 | 59.52778 | 17.92207 | 3802 ft | 208 kts | 115° |
| 2026-05-04 23:40 | 59.52656 | 17.94966 | 4311 ft | 203 kts | 71° |
| 2026-05-04 23:41 | 59.53368 | 17.97221 | 4605 ft | 195 kts | 35° |
| 2026-05-04 23:41 | 59.54418 | 17.98943 | 4923 ft | 194 kts | 31° |
| 2026-05-04 23:41 | 59.55466 | 18.00591 | 5239 ft | 197 kts | 32° |
| 2026-05-04 23:41 | 59.56511 | 18.02354 | 5578 ft | 198 kts | 36° |
| 2026-05-04 23:42 | 59.57532 | 18.04276 | 5774 ft | 210 kts | 40° |
| 2026-05-04 23:42 | 59.58567 | 18.06474 | 5892 ft | 227 kts | 44° |
| 2026-05-04 23:42 | 59.59602 | 18.08956 | 6063 ft | 240 kts | 48° |
| 2026-05-04 23:42 | 59.60615 | 18.11658 | 6318 ft | 248 kts | 51° |
| 2026-05-04 23:43 | 59.61522 | 18.14580 | 6654 ft | 252 kts | 62° |
| 2026-05-04 23:43 | 59.62220 | 18.17790 | 7005 ft | 255 kts | 67° |
| 2026-05-04 23:43 | 59.62846 | 18.21080 | 7361 ft | 257 kts | 69° |
| 2026-05-04 23:43 | 59.63433 | 18.24379 | 7701 ft | 258 kts | 70° |
| 2026-05-04 23:44 | 59.64015 | 18.27752 | 8050 ft | 259 kts | 71° |
| 2026-05-04 23:44 | 59.64583 | 18.31150 | 8382 ft | 261 kts | 71° |
| 2026-05-04 23:44 | 59.65163 | 18.34559 | 8722 ft | 262 kts | 71° |
| 2026-05-04 23:44 | 59.65752 | 18.37987 | 9077 ft | 264 kts | 71° |
| 2026-05-04 23:45 | 59.66350 | 18.41448 | 9432 ft | 270 kts | 71° |
| 2026-05-04 23:45 | 59.66982 | 18.45068 | 9538 ft | 286 kts | 71° |
| 2026-05-04 23:45 | 59.67652 | 18.48896 | 9600 ft | 302 kts | 71° |
| 2026-05-04 23:45 | 59.68379 | 18.52895 | 9666 ft | 315 kts | 66° |
| 2026-05-04 23:46 | 59.69342 | 18.56886 | 9808 ft | 324 kts | 61° |
| 2026-05-04 23:46 | 59.70422 | 18.60830 | 10077 ft | 328 kts | 59° |
| 2026-05-04 23:46 | 59.71550 | 18.64768 | 10386 ft | 329 kts | 58° |
| 2026-05-04 23:46 | 59.72680 | 18.68671 | 10715 ft | 331 kts | 58° |
| 2026-05-04 23:47 | 59.73827 | 18.72672 | 10995 ft | 335 kts | 59° |
| 2026-05-04 23:47 | 59.74986 | 18.76701 | 11276 ft | 337 kts | 57° |
| 2026-05-04 23:47 | 59.76254 | 18.80632 | 11563 ft | 340 kts | 53° |
| 2026-05-04 23:47 | 59.77614 | 18.84558 | 11614 ft | 351 kts | 52° |
| 2026-05-04 23:48 | 59.79041 | 18.88603 | 11637 ft | 363 kts | 52° |
| 2026-05-04 23:48 | 59.80521 | 18.92762 | 11662 ft | 374 kts | 52° |
| 2026-05-04 23:48 | 59.82047 | 18.97032 | 11685 ft | 383 kts | 52° |
| 2026-05-04 23:48 | 59.83599 | 19.01427 | 11708 ft | 392 kts | 53° |
| 2026-05-04 23:49 | 59.85154 | 19.05876 | 11742 ft | 400 kts | 53° |
| 2026-05-04 23:49 | 59.86722 | 19.10382 | 12278 ft | 391 kts | 53° |
| 2026-05-04 23:49 | 59.88243 | 19.14816 | 12794 ft | 386 kts | 53° |
| 2026-05-04 23:49 | 59.89758 | 19.19264 | 13050 ft | 389 kts | 53° |
| 2026-05-04 23:50 | 59.91275 | 19.23748 | 13291 ft | 392 kts | 53° |
| 2026-05-04 23:50 | 59.92807 | 19.28277 | 13580 ft | 395 kts | 53° |
| 2026-05-04 23:50 | 59.94359 | 19.32813 | 13841 ft | 396 kts | 53° |
| 2026-05-04 23:50 | 59.95342 | 19.35898 | 14002 ft | 398 kts | 57° |
| 2026-05-04 23:51 | 59.96649 | 19.40803 | 14241 ft | 402 kts | 63° |
| 2026-05-04 23:51 | 59.97698 | 19.45998 | 14488 ft | 405 kts | 70° |
| 2026-05-04 23:51 | 59.98523 | 19.51385 | 14724 ft | 407 kts | 74° |
| 2026-05-04 23:51 | 59.99228 | 19.56882 | 14968 ft | 410 kts | 76° |
| 2026-05-04 23:52 | 59.99876 | 19.62447 | 15206 ft | 412 kts | 77° |
| 2026-05-04 23:52 | 60.00508 | 19.68044 | 15443 ft | 414 kts | 77° |
| 2026-05-04 23:52 | 60.01145 | 19.73683 | 15700 ft | 416 kts | 77° |
| 2026-05-04 23:52 | 60.01802 | 19.79347 | 15943 ft | 419 kts | 76° |
| 2026-05-04 23:53 | 60.02463 | 19.85047 | 16192 ft | 421 kts | 76° |
| 2026-05-04 23:53 | 60.03126 | 19.90691 | 16424 ft | 423 kts | 76° |
| 2026-05-04 23:53 | 60.03819 | 19.96435 | 16669 ft | 425 kts | 75° |
| 2026-05-04 23:53 | 60.04512 | 20.02197 | 16903 ft | 427 kts | 75° |
| 2026-05-04 23:54 | 60.05206 | 20.08004 | 17141 ft | 430 kts | 75° |
| 2026-05-04 23:54 | 60.05897 | 20.13834 | 17388 ft | 432 kts | 75° |
| 2026-05-04 23:54 | 60.06582 | 20.19703 | 17623 ft | 434 kts | 75° |
| 2026-05-04 23:54 | 60.07268 | 20.25602 | 17851 ft | 436 kts | 75° |
| 2026-05-04 23:55 | 60.07951 | 20.31534 | 18068 ft | 438 kts | 75° |
| 2026-05-04 23:55 | 60.08635 | 20.37469 | 18325 ft | 437 kts | 75° |
| 2026-05-04 23:55 | 60.09994 | 20.49416 | 18761 ft | 441 kts | 76° |
| 2026-05-04 23:56 | 60.10653 | 20.55428 | 18972 ft | 442 kts | 76° |
| 2026-05-04 23:56 | 60.11330 | 20.61383 | 19190 ft | 444 kts | 76° |
| 2026-05-04 23:56 | 60.12021 | 20.67423 | 19422 ft | 445 kts | 76° |
| 2026-05-04 23:56 | 60.12703 | 20.73495 | 19650 ft | 447 kts | 76° |
| 2026-05-04 23:57 | 60.13367 | 20.79594 | 19873 ft | 448 kts | 76° |
| 2026-05-04 23:57 | 60.14037 | 20.85716 | 20107 ft | 450 kts | 76° |
| 2026-05-04 23:57 | 60.14731 | 20.91849 | 20333 ft | 452 kts | 76° |
| 2026-05-04 23:57 | 60.15411 | 20.98021 | 20562 ft | 453 kts | 77° |
| 2026-05-04 23:58 | 60.16084 | 21.04226 | 20786 ft | 455 kts | 77° |
| 2026-05-04 23:58 | 60.16757 | 21.10456 | 21006 ft | 457 kts | 77° |
| 2026-05-04 23:58 | 60.17428 | 21.16681 | 21269 ft | 456 kts | 77° |
| 2026-05-04 23:58 | 60.18104 | 21.22921 | 21500 ft | 457 kts | 77° |
| 2026-05-04 23:59 | 60.18772 | 21.29104 | 21709 ft | 459 kts | 77° |
| 2026-05-04 23:59 | 60.19452 | 21.35377 | 21943 ft | 460 kts | 77° |
| 2026-05-04 23:59 | 60.20136 | 21.41706 | 22084 ft | 465 kts | 77° |
| 2026-05-04 23:59 | 60.20829 | 21.48082 | 22289 ft | 467 kts | 77° |
| 2026-05-05 00:00 | 60.21508 | 21.54464 | 22491 ft | 468 kts | 77° |
| 2026-05-05 00:00 | 60.21947 | 21.58723 | 22592 ft | 469 kts | 78° |
| 2026-05-05 00:00 | 60.22818 | 21.67255 | 22644 ft | 464 kts | 78° |
| 2026-05-05 00:00 | 60.23472 | 21.73625 | 22649 ft | 466 kts | 77° |
| 2026-05-05 00:01 | 60.24153 | 21.80008 | 22652 ft | 466 kts | 77° |
| 2026-05-05 00:01 | 60.24818 | 21.86378 | 22646 ft | 465 kts | 78° |
| 2026-05-05 00:01 | 60.25459 | 21.92701 | 22594 ft | 465 kts | 78° |
| 2026-05-05 00:01 | 60.26099 | 21.99052 | 22628 ft | 461 kts | 78° |
| 2026-05-05 00:02 | 60.26732 | 22.05401 | 22641 ft | 462 kts | 78° |
| 2026-05-05 00:02 | 60.27366 | 22.11754 | 22647 ft | 463 kts | 78° |
| 2026-05-05 00:02 | 60.28006 | 22.18106 | 22657 ft | 463 kts | 77° |
| 2026-05-05 00:02 | 60.28664 | 22.24463 | 22665 ft | 463 kts | 78° |
| 2026-05-05 00:03 | 60.29300 | 22.30847 | 22657 ft | 464 kts | 78° |
| 2026-05-05 00:03 | 60.29932 | 22.37234 | 22657 ft | 464 kts | 78° |
| 2026-05-05 00:03 | 60.30561 | 22.43623 | 22656 ft | 464 kts | 78° |
| 2026-05-05 00:03 | 60.31189 | 22.50009 | 22655 ft | 464 kts | 78° |
| 2026-05-05 00:04 | 60.31820 | 22.56420 | 22700 ft | 469 kts | 78° |
| 2026-05-05 00:04 | 60.32459 | 22.62882 | 22682 ft | 470 kts | 78° |
| 2026-05-05 00:04 | 60.33092 | 22.69342 | 22674 ft | 469 kts | 79° |
| 2026-05-05 00:04 | 60.33694 | 22.75795 | 22638 ft | 466 kts | 79° |
| 2026-05-05 00:05 | 60.34298 | 22.82209 | 22655 ft | 465 kts | 78° |
| 2026-05-05 00:05 | 60.34917 | 22.88627 | 22667 ft | 466 kts | 78° |
| 2026-05-05 00:05 | 60.35517 | 22.94961 | 22666 ft | 466 kts | 79° |
| 2026-05-05 00:05 | 60.36105 | 23.01398 | 22666 ft | 466 kts | 79° |
| 2026-05-05 00:06 | 60.36686 | 23.07843 | 22674 ft | 466 kts | 79° |
| 2026-05-05 00:06 | 60.37289 | 23.14267 | 22673 ft | 466 kts | 79° |
| 2026-05-05 00:06 | 60.37896 | 23.20708 | 22680 ft | 466 kts | 79° |
| 2026-05-05 00:06 | 60.38480 | 23.27161 | 22668 ft | 466 kts | 79° |
| 2026-05-05 00:07 | 60.39057 | 23.33631 | 22626 ft | 467 kts | 79° |
| 2026-05-05 00:07 | 60.39630 | 23.40112 | 22428 ft | 467 kts | 79° |
| 2026-05-05 00:07 | 60.40214 | 23.46540 | 21922 ft | 451 kts | 79° |
| 2026-05-05 00:07 | 60.40759 | 23.52440 | 21250 ft | 414 kts | 79° |
| 2026-05-05 00:08 | 60.41258 | 23.58068 | 20547 ft | 402 kts | 79° |
| 2026-05-05 00:08 | 60.41749 | 23.63606 | 19881 ft | 400 kts | 80° |
| 2026-05-05 00:08 | 60.42239 | 23.69122 | 19271 ft | 399 kts | 80° |
| 2026-05-05 00:08 | 60.42739 | 23.74750 | 18636 ft | 408 kts | 80° |
| 2026-05-05 00:09 | 60.43246 | 23.80418 | 18021 ft | 410 kts | 80° |
| 2026-05-05 00:09 | 60.43735 | 23.86103 | 17333 ft | 410 kts | 81° |
| 2026-05-05 00:09 | 60.44151 | 23.91824 | 16651 ft | 410 kts | 83° |
| 2026-05-05 00:09 | 60.44495 | 23.97329 | 15982 ft | 373 kts | 84° |
| 2026-05-05 00:10 | 60.44797 | 24.02476 | 15312 ft | 364 kts | 85° |
| 2026-05-05 00:10 | 60.45071 | 24.07567 | 14676 ft | 364 kts | 85° |
| 2026-05-05 00:10 | 60.45338 | 24.12650 | 14063 ft | 361 kts | 86° |
| 2026-05-05 00:10 | 60.45603 | 24.17683 | 13457 ft | 358 kts | 86° |
| 2026-05-05 00:11 | 60.45882 | 24.22654 | 12806 ft | 351 kts | 85° |
| 2026-05-05 00:11 | 60.46151 | 24.27606 | 12259 ft | 358 kts | 86° |
| 2026-05-05 00:11 | 60.46364 | 24.32572 | 11706 ft | 359 kts | 87° |
| 2026-05-05 00:11 | 60.46545 | 24.37611 | 11202 ft | 357 kts | 87° |
| 2026-05-05 00:12 | 60.46731 | 24.42616 | 10709 ft | 355 kts | 87° |
| 2026-05-05 00:12 | 60.46913 | 24.47579 | 10215 ft | 351 kts | 87° |
| 2026-05-05 00:12 | 60.47087 | 24.52494 | 9733 ft | 348 kts | 87° |
| 2026-05-05 00:12 | 60.47261 | 24.57355 | 9217 ft | 343 kts | 86° |
| 2026-05-05 00:13 | 60.47284 | 24.62145 | 8699 ft | 337 kts | 96° |
| 2026-05-05 00:13 | 60.47008 | 24.66755 | 8198 ft | 311 kts | 100° |
| 2026-05-05 00:13 | 60.46665 | 24.71025 | 7687 ft | 308 kts | 102° |
| 2026-05-05 00:13 | 60.46277 | 24.75300 | 7192 ft | 309 kts | 102° |
| 2026-05-05 00:14 | 60.45869 | 24.79563 | 6728 ft | 308 kts | 103° |
| 2026-05-05 00:14 | 60.45461 | 24.83801 | 6286 ft | 306 kts | 102° |
| 2026-05-05 00:14 | 60.45058 | 24.88016 | 5833 ft | 304 kts | 102° |
| 2026-05-05 00:14 | 60.44745 | 24.92180 | 5372 ft | 302 kts | 90° |
| 2026-05-05 00:15 | 60.45261 | 24.96281 | 4900 ft | 298 kts | 58° |
| 2026-05-05 00:15 | 60.46479 | 24.99622 | 4466 ft | 293 kts | 49° |
| 2026-05-05 00:15 | 60.47723 | 25.02825 | 4014 ft | 292 kts | 49° |
| 2026-05-05 00:15 | 60.49011 | 25.06063 | 3561 ft | 290 kts | 48° |
| 2026-05-05 00:16 | 60.50295 | 25.09201 | 3186 ft | 286 kts | 47° |
| 2026-05-05 00:16 | 60.51535 | 25.12181 | 3027 ft | 274 kts | 47° |
| 2026-05-05 00:16 | 60.52537 | 25.15355 | 2969 ft | 263 kts | 71° |
| 2026-05-05 00:16 | 60.52571 | 25.18926 | 2969 ft | 245 kts | 108° |
| 2026-05-05 00:17 | 60.51770 | 25.21605 | 2948 ft | 207 kts | 134° |
| 2026-05-05 00:17 | 60.50868 | 25.23712 | 2971 ft | 190 kts | 134° |
| 2026-05-05 00:17 | 60.50051 | 25.25609 | 2993 ft | 165 kts | 135° |
| 2026-05-05 00:17 | 60.49330 | 25.27273 | 2987 ft | 155 kts | 136° |
| 2026-05-05 00:18 | 60.48601 | 25.28830 | 2963 ft | 150 kts | 149° |
| 2026-05-05 00:18 | 60.47681 | 25.29095 | 2953 ft | 130 kts | 214° |
| 2026-05-05 00:18 | 60.46964 | 25.28063 | 2973 ft | 125 kts | 226° |
| 2026-05-05 00:18 | 60.46311 | 25.26924 | 2986 ft | 122 kts | 229° |
| 2026-05-05 00:19 | 60.45699 | 25.25732 | 2991 ft | 121 kts | 231° |
| 2026-05-05 00:19 | 60.45109 | 25.24501 | 2998 ft | 123 kts | 232° |
| 2026-05-05 00:19 | 60.44528 | 25.23256 | 2994 ft | 121 kts | 233° |
| 2026-05-05 00:19 | 60.43953 | 25.22002 | 2989 ft | 122 kts | 233° |
| 2026-05-05 00:20 | 60.43381 | 25.20747 | 2989 ft | 121 kts | 233° |
| 2026-05-05 00:20 | 60.42824 | 25.19499 | 2990 ft | 118 kts | 233° |
| 2026-05-05 00:20 | 60.42263 | 25.18237 | 2926 ft | 124 kts | 233° |
| 2026-05-05 00:20 | 60.41683 | 25.16950 | 2732 ft | 125 kts | 232° |
| 2026-05-05 00:21 | 60.41077 | 25.15605 | 2577 ft | 133 kts | 232° |
| 2026-05-05 00:21 | 60.40452 | 25.14226 | 2397 ft | 133 kts | 232° |
| 2026-05-05 00:21 | 60.40039 | 25.13316 | 2278 ft | 132 kts | 232° |
| 2026-05-05 00:21 | 60.39207 | 25.11494 | 2033 ft | 131 kts | 232° |
| 2026-05-05 00:22 | 60.38596 | 25.10131 | 1843 ft | 130 kts | 232° |
| 2026-05-05 00:22 | 60.37993 | 25.08781 | 1651 ft | 129 kts | 232° |
| 2026-05-05 00:22 | 60.37393 | 25.07450 | 1490 ft | 128 kts | 232° |
| 2026-05-05 00:22 | 60.36792 | 25.06123 | 1316 ft | 129 kts | 231° |
| 2026-05-05 00:23 | 60.36192 | 25.04780 | 1114 ft | 128 kts | 230° |
| 2026-05-05 00:23 | 60.35586 | 25.03457 | 932 ft | 129 kts | 231° |
| 2026-05-05 00:23 | 60.34998 | 25.02139 | 782 ft | 124 kts | 227° |
| 2026-05-05 00:23 | 60.34460 | 25.00905 | 588 ft | 107 kts | 226° |
| 2026-05-05 00:24 | 60.33965 | 24.99823 | 433 ft | 106 kts | 224° |
| 2026-05-05 00:24 | 60.33458 | 24.98750 | 312 ft | 106 kts | 224° |
| 2026-05-05 00:24 | 60.32955 | 24.97653 | 176 ft | 104 kts | 225° |
| 2026-05-05 00:24 | 60.32536 | 24.96685 | 174 ft | 83 kts | 226° |
| 2026-05-05 00:25 | 60.32153 | 24.95890 | 176 ft | 59 kts | 225° |
| 2026-05-05 00:25 | 60.31933 | 24.95418 | 173 ft | 33 kts | 223° |
| 2026-05-05 00:25 | 60.31750 | 24.95234 | 173 ft | 23 kts | 201° |
| 2026-05-05 00:25 | 60.31725 | 24.95214 | 172 ft | 0 kts | 201° |
| 2026-05-05 00:26 | 60.31722 | 24.95212 | 172 ft | 1 kts | 199° |
| 2026-05-05 00:26 | 60.31712 | 24.95207 | 172 ft | 3 kts | 192° |
| 2026-05-05 00:26 | 60.31666 | 24.95190 | 171 ft | 10 kts | 173° |
| 2026-05-05 00:26 | 60.31633 | 24.95298 | 170 ft | 11 kts | 69° |
| 2026-05-05 00:27 | 60.31696 | 24.95440 | 171 ft | 15 kts | 52° |
| 2026-05-05 00:27 | 60.31780 | 24.95628 | 170 ft | 21 kts | 46° |
| 2026-05-05 00:27 | 60.31889 | 24.95870 | 169 ft | 24 kts | 47° |
| 2026-05-05 00:27 | 60.31912 | 24.96110 | 167 ft | 18 kts | 77° |
| 2026-05-05 00:28 | 60.31978 | 24.96270 | 167 ft | 9 kts | 47° |
| 2026-05-05 00:28 | 60.31997 | 24.96311 | 167 ft | 2 kts | 47° |
| 2026-05-05 00:28 | 60.32017 | 24.96357 | 167 ft | 7 kts | 53° |
| 2026-05-05 00:28 | 60.32016 | 24.96424 | 166 ft | 4 kts | 163° |
| 2026-05-05 00:29 | 60.31983 | 24.96473 | 166 ft | 7 kts | 139° |
| 2026-05-05 00:29 | 60.31978 | 24.96481 | 166 ft | 0 kts | 137° |